Time;durP1;ratioP1;P1;durP2;ratioP2;P2;SDS_P1;SDS_P2;PMS_P1;PMS_P2;Temp;Humidity;BMP_temperature;BMP_pressure;BME280_temperature;BME280_humidity;BME280_pressure;Samples;Min_cycle;Max_cycle;Signal;HPM_P1;HPM_P2
2022/10/29 00:01:43;;;;;;;14.07;3.58;;;18.30;98.60;;;;;;5053356;28;20489;-74
2022/10/29 00:04:09;;;;;;;10.85;3.65;;;18.30;98.60;;;;;;5052826;28;20029;-74
2022/10/29 00:06:35;;;;;;;14.23;3.33;;;18.20;98.60;;;;;;5053273;28;20025;-74
2022/10/29 00:09:00;;;;;;;11.02;3.33;;;18.30;98.70;;;;;;5053957;28;20040;-74
2022/10/29 00:11:26;;;;;;;12.95;3.65;;;18.30;98.70;;;;;;5069655;28;20066;-74
2022/10/29 00:13:54;;;;;;;15.27;4.40;;;18.20;98.70;;;;;;5074979;28;20386;-74
2022/10/29 00:16:23;;;;;;;13.43;3.60;;;18.10;98.60;;;;;;5051985;28;20036;-74
2022/10/29 00:18:48;;;;;;;11.95;3.00;;;18.00;98.70;;;;;;5053918;28;20021;-74
2022/10/29 00:21:20;;;;;;;14.73;3.65;;;18.00;98.80;;;;;;5056944;28;20021;-74
2022/10/29 00:23:46;;;;;;;15.40;4.30;;;18.00;98.80;;;;;;5056774;28;20477;-74
2022/10/29 00:26:13;;;;;;;17.13;4.30;;;18.00;98.70;;;;;;5056728;28;20473;-74
2022/10/29 00:28:39;;;;;;;14.27;4.47;;;17.90;98.80;;;;;;5056796;28;20219;-75
2022/10/29 00:31:09;;;;;;;18.15;5.07;;;17.90;98.90;;;;;;5056593;28;20153;-74
2022/10/29 00:33:35;;;;;;;21.00;5.13;;;17.70;99.10;;;;;;5056299;28;20115;-74
2022/10/29 00:36:04;;;;;;;18.98;4.88;;;17.60;99.40;;;;;;5056591;28;20126;-75
2022/10/29 00:38:31;;;;;;;19.95;6.72;;;17.60;99.50;;;;;;5056482;28;20477;-73
2022/10/29 00:40:57;;;;;;;22.13;7.63;;;17.50;99.60;;;;;;5056546;28;20532;-73
2022/10/29 00:43:24;;;;;;;26.75;8.13;;;17.40;99.60;;;;;;5056595;28;20025;-74
2022/10/29 00:46:04;;;;;;;22.42;7.82;;;17.40;99.70;;;;;;5056460;28;20029;-74
2022/10/29 00:48:34;;;;;;;19.38;6.53;;;17.40;99.70;;;;;;5057076;28;20021;-74
2022/10/29 00:51:03;;;;;;;23.10;6.25;;;17.40;99.80;;;;;;5056571;28;20037;-74
2022/10/29 00:53:34;;;;;;;18.67;5.45;;;17.30;99.90;;;;;;5056842;28;20100;-74
2022/10/29 00:56:00;;;;;;;23.58;6.60;;;17.30;99.80;;;;;;5056951;28;20025;-74
2022/10/29 00:58:27;;;;;;;17.55;5.18;;;17.30;99.70;;;;;;5056626;28;20017;-74
2022/10/29 01:00:52;;;;;;;14.70;5.57;;;17.30;99.70;;;;;;5056927;28;20055;-75
2022/10/29 01:03:18;;;;;;;17.52;5.78;;;17.40;99.60;;;;;;5056912;28;20054;-74
2022/10/29 01:05:45;;;;;;;17.10;6.03;;;17.50;99.50;;;;;;5057082;28;20021;-75
2022/10/29 01:08:12;;;;;;;13.50;5.90;;;17.60;99.40;;;;;;5072809;28;20048;-75
2022/10/29 01:11:08;;;;;;;19.45;6.78;;;17.60;99.30;;;;;;5078441;28;20021;-74
2022/10/29 01:13:39;;;;;;;16.30;5.25;;;17.60;99.20;;;;;;5056391;28;20159;-73
2022/10/29 01:16:34;;;;;;;16.65;5.18;;;17.60;99.20;;;;;;5056102;28;20024;-74
2022/10/29 01:19:12;;;;;;;15.30;5.07;;;17.60;99.00;;;;;;5046828;28;20037;-74
2022/10/29 01:21:44;;;;;;;18.05;5.05;;;17.70;99.00;;;;;;5055947;28;20025;-75
2022/10/29 01:24:43;;;;;;;17.77;4.68;;;17.70;98.90;;;;;;5055598;28;20024;-74
2022/10/29 01:27:38;;;;;;;12.65;3.80;;;17.80;98.90;;;;;;5055666;28;20111;-74
2022/10/29 01:30:17;;;;;;;15.90;4.35;;;17.80;98.80;;;;;;5054784;28;20135;-74
2022/10/29 01:33:08;;;;;;;16.63;4.45;;;17.80;98.70;;;;;;5055690;28;20502;-74
2022/10/29 01:35:55;;;;;;;11.70;4.38;;;17.70;98.70;;;;;;5055301;28;20033;-74
2022/10/29 01:38:33;;;;;;;18.30;4.93;;;17.80;98.70;;;;;;5055516;28;20425;-74
2022/10/29 01:41:08;;;;;;;12.15;4.25;;;17.80;98.70;;;;;;5055536;28;20432;-74
2022/10/29 01:43:58;;;;;;;10.93;4.00;;;17.70;98.60;;;;;;5055810;28;20025;-74
2022/10/29 01:46:27;;;;;;;16.05;4.72;;;17.80;98.60;;;;;;5055572;28;20078;-74
2022/10/29 01:49:00;;;;;;;14.98;4.97;;;17.70;98.50;;;;;;5055653;28;20074;-74
2022/10/29 01:51:30;;;;;;;15.70;4.50;;;17.70;98.50;;;;;;5055197;28;20036;-75
2022/10/29 01:53:58;;;;;;;11.63;4.65;;;17.70;98.50;;;;;;5055151;28;20453;-74
2022/10/29 01:56:23;;;;;;;15.23;4.25;;;17.70;98.40;;;;;;5055045;28;20055;-74
2022/10/29 01:58:53;;;;;;;13.10;4.43;;;17.70;98.40;;;;;;5055404;28;20020;-74
2022/10/29 02:01:38;;;;;;;13.02;4.38;;;17.70;98.40;;;;;;5055381;28;20017;-73
2022/10/29 02:04:35;;;;;;;13.40;4.80;;;17.70;98.40;;;;;;5065733;28;20013;-73
2022/10/29 02:07:27;;;;;;;14.38;5.03;;;17.60;98.40;;;;;;5077452;28;20033;-74
2022/10/29 02:10:32;;;;;;;16.15;4.95;;;17.60;98.50;;;;;;5055270;28;20029;-74
2022/10/29 02:13:00;;;;;;;15.93;4.90;;;17.60;98.60;;;;;;5055002;28;20399;-74
2022/10/29 02:15:30;;;;;;;18.35;4.97;;;17.60;98.60;;;;;;5055091;28;20025;-75
2022/10/29 02:18:00;;;;;;;14.63;4.93;;;17.50;98.70;;;;;;5055016;28;20048;-74
2022/10/29 02:20:26;;;;;;;10.82;4.32;;;17.50;98.70;;;;;;5054998;28;20495;-74
2022/10/29 02:22:52;;;;;;;12.63;4.05;;;17.50;98.80;;;;;;5054873;28;20044;-75
2022/10/29 02:25:17;;;;;;;17.50;5.45;;;17.50;98.80;;;;;;5054803;28;20029;-74
2022/10/29 02:27:43;;;;;;;15.02;4.72;;;17.50;98.80;;;;;;5054785;28;20067;-74
2022/10/29 02:30:09;;;;;;;19.25;6.45;;;17.50;98.70;;;;;;5054503;28;20045;-74
2022/10/29 02:32:34;;;;;;;17.15;5.88;;;17.50;98.80;;;;;;5054855;28;20025;-74
2022/10/29 02:35:00;;;;;;;18.50;5.97;;;17.50;98.90;;;;;;5054420;28;20025;-73
2022/10/29 02:37:26;;;;;;;21.73;5.97;;;17.40;99.20;;;;;;5054558;28;20372;-75
2022/10/29 02:39:51;;;;;;;15.75;5.50;;;17.40;99.10;;;;;;5054522;28;20373;-74
2022/10/29 02:42:17;;;;;;;15.90;5.95;;;17.40;99.10;;;;;;5054010;28;20498;-74
2022/10/29 02:44:43;;;;;;;14.32;4.97;;;17.40;99.20;;;;;;5054529;28;20017;-74
2022/10/29 02:47:08;;;;;;;19.17;6.15;;;17.40;99.20;;;;;;5054274;28;20088;-74
2022/10/29 02:49:34;;;;;;;18.55;5.57;;;17.40;99.20;;;;;;5054486;28;20108;-75
2022/10/29 02:51:59;;;;;;;17.25;5.70;;;17.30;99.20;;;;;;5053946;28;20416;-74
2022/10/29 02:54:25;;;;;;;17.17;5.80;;;17.40;99.20;;;;;;5054360;28;20040;-74
2022/10/29 02:56:50;;;;;;;15.52;5.28;;;17.40;99.10;;;;;;5054171;28;20465;-74
2022/10/29 02:59:19;;;;;;;18.58;6.13;;;17.40;99.00;;;;;;5054508;28;20021;-74
2022/10/29 03:01:44;;;;;;;22.70;6.72;;;17.40;99.00;;;;;;5068063;28;20025;-74
2022/10/29 03:04:10;;;;;;;24.23;7.85;;;17.40;99.30;;;;;;5077409;28;20020;-75
2022/10/29 03:06:36;;;;;;;20.58;7.43;;;17.40;99.10;;;;;;5055199;28;20531;-74
2022/10/29 03:09:02;;;;;;;20.55;7.07;;;17.20;99.30;;;;;;5054135;28;20023;-74
2022/10/29 03:11:28;;;;;;;19.10;7.00;;;17.10;99.70;;;;;;5054049;28;20043;-75
2022/10/29 03:13:54;;;;;;;18.55;6.60;;;17.10;99.50;;;;;;5054062;28;20095;-75
2022/10/29 03:16:19;;;;;;;18.10;6.70;;;17.10;99.60;;;;;;5053774;28;20485;-73
2022/10/29 03:18:45;;;;;;;17.23;7.68;;;17.10;99.60;;;;;;5053318;28;20052;-75
2022/10/29 03:21:10;;;;;;;20.20;7.72;;;17.20;99.60;;;;;;5053445;28;20037;-73
2022/10/29 03:23:36;;;;;;;13.93;7.22;;;17.20;99.60;;;;;;5053482;28;20021;-74
2022/10/29 03:26:02;;;;;;;19.10;8.40;;;17.20;99.70;;;;;;5052498;28;20032;-74
2022/10/29 03:28:29;;;;;;;18.88;7.43;;;17.20;99.70;;;;;;5053586;28;20380;-74
2022/10/29 03:30:58;;;;;;;15.48;7.22;;;17.20;99.80;;;;;;5051762;28;20051;-74
2022/10/29 03:33:25;;;;;;;20.33;8.38;;;17.30;99.90;;;;;;5053309;28;20104;-75
2022/10/29 03:36:02;;;;;;;17.45;7.07;;;17.30;99.90;;;;;;5053764;28;20436;-75
2022/10/29 03:38:28;;;;;;;18.20;7.88;;;17.30;99.90;;;;;;5053447;28;20431;-75
2022/10/29 03:40:54;;;;;;;14.98;7.38;;;17.30;99.90;;;;;;5053443;28;20473;-75
2022/10/29 03:43:19;;;;;;;15.45;7.60;;;17.20;99.80;;;;;;5053221;28;20029;-75
2022/10/29 03:45:53;;;;;;;21.58;8.65;;;17.30;99.80;;;;;;5053238;28;20500;-75
2022/10/29 03:48:19;;;;;;;19.90;8.82;;;17.30;99.90;;;;;;5053535;28;20029;-75
2022/10/29 03:50:52;;;;;;;20.30;9.68;;;17.30;99.90;;;;;;5053130;28;20031;-75
2022/10/29 03:53:17;;;;;;;23.00;10.32;;;17.30;99.90;;;;;;5053076;28;20040;-75
2022/10/29 03:55:43;;;;;;;23.20;9.52;;;17.20;99.90;;;;;;5053639;28;20473;-74
2022/10/29 03:58:08;;;;;;;24.63;10.23;;;17.20;99.90;;;;;;5066053;28;20029;-74
2022/10/29 04:00:34;;;;;;;18.88;9.25;;;17.20;99.90;;;;;;5076311;28;20045;-74
2022/10/29 04:03:00;;;;;;;17.77;8.90;;;17.20;99.90;;;;;;5059566;28;20090;-75
2022/10/29 04:05:25;;;;;;;22.25;9.45;;;17.20;99.90;;;;;;5053178;28;20048;-76
2022/10/29 04:07:51;;;;;;;19.08;9.27;;;17.20;99.90;;;;;;5053100;28;20025;-74
2022/10/29 04:10:16;;;;;;;17.98;9.20;;;17.10;99.90;;;;;;5052750;28;20028;-74
2022/10/29 04:12:45;;;;;;;18.20;9.07;;;17.20;99.90;;;;;;5053282;28;20044;-74
2022/10/29 04:15:11;;;;;;;26.27;11.15;;;17.20;99.90;;;;;;5052844;28;20021;-75
2022/10/29 04:17:36;;;;;;;22.48;10.60;;;17.10;99.90;;;;;;5053214;28;20427;-75
2022/10/29 04:20:02;;;;;;;20.08;10.40;;;17.10;99.90;;;;;;5053071;28;20024;-74
2022/10/29 04:22:28;;;;;;;23.40;11.05;;;17.10;99.90;;;;;;5052808;28;20033;-74
2022/10/29 04:24:54;;;;;;;28.60;12.60;;;17.10;99.90;;;;;;5052733;28;20025;-75
2022/10/29 04:27:19;;;;;;;26.63;12.00;;;17.10;99.90;;;;;;5053125;28;20036;-75
2022/10/29 04:29:45;;;;;;;25.33;12.45;;;17.10;99.90;;;;;;5052540;28;20041;-75
2022/10/29 04:32:10;;;;;;;27.35;12.15;;;17.00;99.90;;;;;;5053009;28;20041;-75
2022/10/29 04:34:36;;;;;;;27.92;12.80;;;17.00;99.90;;;;;;5052938;28;20453;-75
2022/10/29 04:37:02;;;;;;;21.15;11.27;;;16.90;99.90;;;;;;5052575;28;20021;-74
2022/10/29 04:39:27;;;;;;;26.52;12.70;;;16.90;99.90;;;;;;5052846;28;20123;-74
2022/10/29 04:41:53;;;;;;;23.42;11.55;;;16.80;99.90;;;;;;5052604;28;20053;-74
2022/10/29 04:44:19;;;;;;;27.95;12.65;;;16.90;99.90;;;;;;5052516;28;20071;-75
2022/10/29 04:46:44;;;;;;;30.35;12.23;;;16.90;99.90;;;;;;5052967;28;20116;-75
2022/10/29 04:49:10;;;;;;;27.30;12.52;;;16.80;99.90;;;;;;5053032;28;20071;-74
2022/10/29 04:51:35;;;;;;;26.52;12.82;;;16.90;99.90;;;;;;5052496;28;20090;-74
2022/10/29 04:54:01;;;;;;;24.77;11.85;;;16.80;99.90;;;;;;5054036;28;20021;-72
2022/10/29 04:56:28;;;;;;;23.75;11.38;;;16.80;99.90;;;;;;5073653;28;20026;-74
2022/10/29 04:58:54;;;;;;;20.15;10.88;;;16.80;99.90;;;;;;5068585;28;20052;-74
2022/10/29 05:01:20;;;;;;;23.25;10.85;;;16.90;99.90;;;;;;5052832;28;20510;-74
2022/10/29 05:03:45;;;;;;;18.65;9.88;;;17.00;99.90;;;;;;5052897;28;20160;-74
2022/10/29 05:06:11;;;;;;;21.08;11.35;;;17.00;99.90;;;;;;5054179;28;20021;-74
2022/10/29 05:08:36;;;;;;;21.27;10.88;;;17.00;99.90;;;;;;5056339;28;20465;-75
2022/10/29 05:11:04;;;;;;;19.20;10.40;;;17.00;99.90;;;;;;5055683;28;20067;-74
2022/10/29 05:13:32;;;;;;;18.00;10.57;;;17.00;99.90;;;;;;5056340;28;20035;-75
2022/10/29 05:15:58;;;;;;;21.63;10.48;;;17.00;99.90;;;;;;5055884;28;20052;-75
2022/10/29 05:18:24;;;;;;;17.30;10.20;;;17.10;99.90;;;;;;5056127;28;20059;-73
2022/10/29 05:20:56;;;;;;;19.20;10.02;;;17.10;99.90;;;;;;5056278;28;20473;-73
2022/10/29 05:23:22;;;;;;;18.90;10.65;;;17.10;99.90;;;;;;5055699;28;20028;-74
2022/10/29 05:25:50;;;;;;;22.67;10.70;;;17.20;99.90;;;;;;5056074;28;20537;-75
2022/10/29 05:28:18;;;;;;;20.85;10.23;;;17.10;99.90;;;;;;5055935;28;20100;-75
2022/10/29 05:30:44;;;;;;;18.90;10.65;;;17.10;99.90;;;;;;5055297;28;20131;-75
2022/10/29 05:33:13;;;;;;;21.15;11.48;;;17.10;99.90;;;;;;5055654;28;20159;-75
2022/10/29 05:35:42;;;;;;;22.52;11.02;;;17.20;99.90;;;;;;5055519;28;20053;-75
2022/10/29 05:38:09;;;;;;;19.25;10.43;;;17.20;99.90;;;;;;5055579;28;20027;-74
2022/10/29 05:40:35;;;;;;;18.85;11.10;;;17.10;99.90;;;;;;5055838;28;20136;-75
2022/10/29 05:43:00;;;;;;;23.05;11.10;;;17.10;99.90;;;;;;5055348;28;20452;-74
2022/10/29 05:45:26;;;;;;;20.38;11.02;;;17.10;99.90;;;;;;5055435;28;20035;-74
2022/10/29 05:47:56;;;;;;;16.10;10.15;;;17.10;99.90;;;;;;5055674;28;20105;-75
2022/10/29 05:50:22;;;;;;;18.40;10.23;;;17.00;99.90;;;;;;5056048;28;20059;-75
2022/10/29 05:52:58;;;;;;;20.45;10.85;;;17.00;99.90;;;;;;5075730;28;20033;-74
2022/10/29 05:55:24;;;;;;;20.92;11.30;;;17.10;99.90;;;;;;5075520;28;20064;-75
2022/10/29 05:57:53;;;;;;;21.27;10.48;;;17.10;99.90;;;;;;5055625;28;20058;-75
2022/10/29 06:00:19;;;;;;;18.98;11.70;;;17.10;99.90;;;;;;5055296;28;20029;-75
2022/10/29 06:02:44;;;;;;;18.60;10.95;;;17.00;99.90;;;;;;5055101;28;20473;-75
2022/10/29 06:05:10;;;;;;;22.55;11.98;;;17.00;99.90;;;;;;5055149;28;20029;-75
2022/10/29 06:07:36;;;;;;;17.40;10.50;;;17.00;99.90;;;;;;5054917;28;20032;-74
2022/10/29 06:10:02;;;;;;;25.90;11.63;;;17.00;99.90;;;;;;5055041;28;20027;-74
2022/10/29 06:12:31;;;;;;;22.73;12.23;;;17.00;99.90;;;;;;5054700;28;20095;-74
2022/10/29 06:14:57;;;;;;;20.10;11.68;;;17.00;99.90;;;;;;5055021;28;20021;-74
2022/10/29 06:17:22;;;;;;;15.70;9.30;;;16.90;99.90;;;;;;5053759;28;20020;-75
2022/10/29 06:19:48;;;;;;;17.10;9.10;;;17.00;99.90;;;;;;5053017;28;20120;-75
2022/10/29 06:22:13;;;;;;;15.00;8.18;;;17.10;99.90;;;;;;5053359;28;20086;-76
2022/10/29 06:24:39;;;;;;;15.10;8.93;;;17.10;99.90;;;;;;5053294;28;20075;-76
2022/10/29 06:27:05;;;;;;;12.15;7.10;;;17.20;99.90;;;;;;5054119;28;20063;-76
2022/10/29 06:29:30;;;;;;;13.70;6.18;;;17.20;99.90;;;;;;5054303;28;20057;-79
2022/10/29 06:31:56;;;;;;;22.13;10.07;;;17.30;99.90;;;;;;5054391;28;20033;-77
2022/10/29 06:34:21;;;;;;;19.05;8.90;;;17.30;99.90;;;;;;5054485;28;20017;-76
2022/10/29 06:36:50;;;;;;;17.77;8.45;;;17.30;99.90;;;;;;5054361;28;20409;-74
2022/10/29 06:39:15;;;;;;;25.67;8.25;;;17.30;99.90;;;;;;5054506;28;20025;-76
2022/10/29 06:41:41;;;;;;;12.07;6.55;;;17.30;99.90;;;;;;5054069;28;20055;-76
2022/10/29 06:44:06;;;;;;;19.48;6.53;;;17.40;99.90;;;;;;5054497;28;20043;-75
2022/10/29 06:46:33;;;;;;;17.95;10.52;;;17.50;99.90;;;;;;5054480;28;20025;-74
2022/10/29 06:49:00;;;;;;;20.58;10.18;;;17.40;99.90;;;;;;5055886;28;20021;-73
2022/10/29 06:51:25;;;;;;;22.48;10.05;;;17.40;99.90;;;;;;5054779;28;20036;-75
2022/10/29 06:53:52;;;;;;;22.75;8.63;;;17.40;99.90;;;;;;5053743;28;20044;-75
2022/10/29 06:56:18;;;;;;;20.00;10.23;;;17.40;99.90;;;;;;5052449;28;20033;-74
2022/10/29 06:58:44;;;;;;;17.52;8.38;;;17.50;99.90;;;;;;5053366;28;20032;-76
2022/10/29 07:01:10;;;;;;;15.77;6.85;;;17.40;99.90;;;;;;5053382;28;20420;-76
2022/10/29 07:03:35;;;;;;;20.02;7.80;;;17.40;99.90;;;;;;5053212;28;20017;-76
2022/10/29 07:06:01;;;;;;;18.65;6.45;;;17.40;99.90;;;;;;5053832;28;20028;-76
2022/10/29 07:08:27;;;;;;;18.25;9.05;;;17.40;99.90;;;;;;5053212;28;20063;-75
2022/10/29 07:10:54;;;;;;;19.52;10.00;;;17.50;99.90;;;;;;5053480;28;20043;-75
2022/10/29 07:13:19;;;;;;;13.73;7.05;;;17.60;99.90;;;;;;5054077;28;20045;-75
2022/10/29 07:15:45;;;;;;;18.17;8.15;;;17.60;99.90;;;;;;5053581;28;20385;-76
2022/10/29 07:18:11;;;;;;;13.43;7.78;;;17.60;99.90;;;;;;5053595;28;20020;-75
2022/10/29 07:20:40;;;;;;;20.27;9.18;;;17.60;99.90;;;;;;5053575;28;20025;-77
2022/10/29 07:23:06;;;;;;;15.18;6.10;;;17.60;99.90;;;;;;5053447;28;20025;-77
2022/10/29 07:25:33;;;;;;;14.52;8.80;;;17.60;99.90;;;;;;5053266;28;20070;-76
2022/10/29 07:28:04;;;;;;;22.10;11.65;;;17.70;99.90;;;;;;5052980;28;20028;-76
2022/10/29 07:30:30;;;;;;;14.57;9.15;;;17.70;99.90;;;;;;5053043;28;20080;-76
2022/10/29 07:32:55;;;;;;;15.30;8.45;;;17.70;99.90;;;;;;5053080;28;20067;-74
2022/10/29 07:35:21;;;;;;;18.38;9.90;;;17.70;99.90;;;;;;5053610;28;20048;-75
2022/10/29 07:37:46;;;;;;;16.00;8.93;;;17.60;99.90;;;;;;5053431;28;20377;-76
2022/10/29 07:40:12;;;;;;;16.33;9.95;;;17.70;99.90;;;;;;5053504;28;20142;-75
2022/10/29 07:42:38;;;;;;;22.23;12.30;;;17.70;99.90;;;;;;5052069;28;20362;-74
2022/10/29 07:45:04;;;;;;;24.73;13.13;;;17.70;99.90;;;;;;5052761;28;20017;-73
2022/10/29 07:47:29;;;;;;;28.35;11.55;;;17.70;99.90;;;;;;5052308;28;20033;-74
2022/10/29 07:49:55;;;;;;;23.08;12.55;;;17.70;99.90;;;;;;5052437;28;20027;-75
2022/10/29 07:52:21;;;;;;;26.27;13.93;;;17.70;99.90;;;;;;5053256;28;20465;-75
2022/10/29 07:54:46;;;;;;;23.75;12.88;;;17.70;99.90;;;;;;5052875;28;20111;-75
2022/10/29 07:57:12;;;;;;;31.25;13.98;;;17.70;99.90;;;;;;5052558;28;20033;-75
2022/10/29 07:59:38;;;;;;;22.88;11.40;;;17.70;99.90;;;;;;5053241;28;20027;-75
2022/10/29 08:02:03;;;;;;;20.38;10.85;;;17.60;99.90;;;;;;5052875;28;20017;-75
2022/10/29 08:04:32;;;;;;;28.85;14.48;;;17.70;99.90;;;;;;5052706;28;20033;-76
2022/10/29 08:06:57;;;;;;;23.52;12.07;;;17.70;99.90;;;;;;5053184;28;20099;-76
2022/10/29 08:09:23;;;;;;;19.10;10.75;;;17.70;99.90;;;;;;5052778;28;20472;-76
2022/10/29 08:11:48;;;;;;;18.52;10.18;;;17.70;99.90;;;;;;5052871;28;20029;-77
2022/10/29 08:14:14;;;;;;;27.48;13.13;;;17.80;99.90;;;;;;5052979;28;20342;-79
2022/10/29 08:16:39;;;;;;;19.85;9.75;;;17.80;99.90;;;;;;5053038;28;20082;-78
2022/10/29 08:19:05;;;;;;;20.38;10.65;;;17.80;99.90;;;;;;5053555;28;20040;-77
2022/10/29 08:21:31;;;;;;;19.30;11.95;;;17.90;99.90;;;;;;5052915;28;20082;-77
2022/10/29 08:23:57;;;;;;;16.88;8.57;;;18.00;99.90;;;;;;5052417;28;20025;-77
2022/10/29 08:26:22;;;;;;;26.70;11.60;;;18.00;99.90;;;;;;5052691;28;20123;-77
2022/10/29 08:28:48;;;;;;;25.25;11.98;;;18.10;99.90;;;;;;5052853;28;20412;-76
2022/10/29 08:31:14;;;;;;;26.17;13.23;;;18.10;99.90;;;;;;5052556;28;20102;-77
2022/10/29 08:33:40;;;;;;;22.27;10.52;;;18.10;99.90;;;;;;5053118;28;20041;-77
2022/10/29 08:36:06;;;;;;;26.30;14.77;;;18.10;99.90;;;;;;5052505;28;20017;-77
2022/10/29 08:38:31;;;;;;;25.42;13.55;;;18.10;99.90;;;;;;5053011;28;20056;-76
2022/10/29 08:40:57;;;;;;;24.05;11.63;;;18.20;99.90;;;;;;5055595;28;20021;-75
2022/10/29 08:43:32;;;;;;;21.15;11.57;;;18.20;99.90;;;;;;5062552;28;20025;-76
2022/10/29 08:45:58;;;;;;;22.80;13.27;;;18.20;99.90;;;;;;5056261;28;20052;-77
2022/10/29 08:48:32;;;;;;;17.40;8.27;;;18.30;99.90;;;;;;5056334;28;20071;-77
2022/10/29 08:51:19;;;;;;;22.33;11.57;;;18.40;99.90;;;;;;5055736;28;20051;-79
2022/10/29 08:53:48;;;;;;;26.27;12.23;;;18.40;99.90;;;;;;5056377;28;20028;-77
2022/10/29 08:56:20;;;;;;;21.85;11.07;;;18.40;99.90;;;;;;5056179;28;20523;-78
2022/10/29 08:59:07;;;;;;;19.10;10.13;;;18.40;99.90;;;;;;5055006;28;20083;-81
2022/10/29 09:01:34;;;;;;;24.70;12.82;;;18.50;99.90;;;;;;5056231;28;20029;-80
2022/10/29 09:04:00;;;;;;;21.52;11.27;;;18.50;99.90;;;;;;5056451;28;20374;-80
2022/10/29 09:06:39;;;;;;;22.33;11.77;;;18.50;99.90;;;;;;5055896;28;20086;-77
2022/10/29 09:09:26;;;;;;;22.23;11.07;;;18.50;99.90;;;;;;5055070;28;20025;-81
2022/10/29 09:12:32;;;;;;;16.13;8.95;;;18.60;99.90;;;;;;5052914;28;20041;-79
2022/10/29 09:15:09;;;;;;;20.92;10.65;;;18.70;99.90;;;;;;5053116;28;20040;-77
2022/10/29 09:17:45;;;;;;;20.15;10.98;;;18.80;99.90;;;;;;5056105;28;20366;-76
2022/10/29 09:20:19;;;;;;;23.05;10.82;;;18.90;99.90;;;;;;5056312;28;20032;-77
2022/10/29 09:22:50;;;;;;;22.25;10.20;;;18.90;99.90;;;;;;5056149;28;20032;-77
2022/10/29 09:26:04;;;;;;;22.27;11.40;;;19.00;99.90;;;;;;5055148;28;20100;-77
2022/10/29 09:28:35;;;;;;;22.20;11.15;;;19.00;99.90;;;;;;5054024;28;20065;-78
2022/10/29 09:31:06;;;;;;;22.83;10.65;;;19.00;99.90;;;;;;5055390;28;20052;-78
2022/10/29 09:33:32;;;;;;;23.40;11.80;;;19.00;99.90;;;;;;5055620;28;20056;-78
2022/10/29 09:35:58;;;;;;;20.75;11.10;;;19.00;99.90;;;;;;5056526;28;20029;-78
2022/10/29 09:38:39;;;;;;;24.08;12.18;;;19.00;99.90;;;;;;5060397;28;20420;-75
2022/10/29 09:41:08;;;;;;;26.77;12.48;;;19.00;99.90;;;;;;5058295;28;20104;-78
2022/10/29 09:43:54;;;;;;;19.63;9.80;;;19.00;99.90;;;;;;5055626;28;20036;-78
2022/10/29 09:46:44;;;;;;;23.05;13.20;;;18.90;99.90;;;;;;5055027;28;20057;-78
2022/10/29 09:49:28;;;;;;;27.20;13.30;;;18.90;99.90;;;;;;5055304;28;20523;-78
2022/10/29 09:52:02;;;;;;;18.27;10.48;;;18.90;99.90;;;;;;5054181;28;20520;-79
2022/10/29 09:54:29;;;;;;;20.48;11.27;;;18.90;99.90;;;;;;5054906;28;20025;-79
2022/10/29 09:56:57;;;;;;;21.80;11.75;;;18.90;99.90;;;;;;5054707;28;20087;-78
2022/10/29 09:59:34;;;;;;;23.92;12.45;;;18.90;99.90;;;;;;5055289;28;20108;-78
2022/10/29 10:02:00;;;;;;;23.50;11.55;;;18.90;99.90;;;;;;5055240;28;20021;-77
2022/10/29 10:04:31;;;;;;;16.08;8.65;;;18.80;99.90;;;;;;5054834;28;20609;-78
2022/10/29 10:07:10;;;;;;;25.08;12.35;;;18.80;99.90;;;;;;5054960;28;20060;-78
2022/10/29 10:09:56;;;;;;;22.23;13.13;;;18.80;99.90;;;;;;5054918;28;20108;-77
2022/10/29 10:12:25;;;;;;;19.60;12.32;;;18.70;99.90;;;;;;5055103;28;20044;-77
2022/10/29 10:15:15;;;;;;;24.38;12.18;;;18.70;99.90;;;;;;5054690;28;20083;-77
2022/10/29 10:17:59;;;;;;;21.00;11.95;;;18.70;99.90;;;;;;5054796;28;20024;-77
2022/10/29 10:20:46;;;;;;;26.63;11.98;;;18.70;99.90;;;;;;5054779;28;20029;-77
2022/10/29 10:23:24;;;;;;;19.27;10.95;;;18.70;99.90;;;;;;5054483;28;20386;-77
2022/10/29 10:25:54;;;;;;;23.23;12.65;;;18.70;99.90;;;;;;5054957;28;20021;-78
2022/10/29 10:28:28;;;;;;;27.70;13.25;;;18.70;99.90;;;;;;5055174;28;20017;-77
2022/10/29 10:31:02;;;;;;;21.35;12.23;;;18.70;99.90;;;;;;5054921;28;20056;-76
2022/10/29 10:33:30;;;;;;;21.48;11.82;;;18.70;99.90;;;;;;5054950;28;20025;-76
2022/10/29 10:36:07;;;;;;;22.88;11.15;;;18.70;99.90;;;;;;5064045;28;20037;-78
2022/10/29 10:38:47;;;;;;;16.13;9.93;;;18.70;99.90;;;;;;5054869;28;20350;-78
2022/10/29 10:41:15;;;;;;;22.60;10.60;;;18.80;99.90;;;;;;5054350;28;20488;-77
2022/10/29 10:43:45;;;;;;;22.80;10.70;;;18.90;99.90;;;;;;5054114;28;20482;-78
2022/10/29 10:46:21;;;;;;;25.42;11.68;;;19.00;99.90;;;;;;5053975;28;20037;-78
2022/10/29 10:49:16;;;;;;;21.60;10.18;;;19.20;99.90;;;;;;5054178;28;20028;-78
2022/10/29 10:51:49;;;;;;;19.00;10.60;;;19.30;99.90;;;;;;5054452;28;20033;-78
2022/10/29 10:54:35;;;;;;;17.83;9.60;;;19.50;99.90;;;;;;5054368;28;20100;-78
2022/10/29 10:57:10;;;;;;;20.50;10.05;;;19.70;99.70;;;;;;5053994;28;20036;-79
2022/10/29 10:59:50;;;;;;;17.27;9.55;;;19.90;99.20;;;;;;5054194;28;20096;-80
2022/10/29 11:02:46;;;;;;;22.48;9.32;;;19.90;98.90;;;;;;5054190;28;20112;-78
2022/10/29 11:05:20;;;;;;;18.35;8.95;;;20.00;99.00;;;;;;5053961;28;20376;-79
2022/10/29 11:08:04;;;;;;;14.90;8.02;;;20.10;98.70;;;;;;5053772;28;20570;-79
2022/10/29 11:10:59;;;;;;;18.88;9.55;;;20.00;98.40;;;;;;5054232;28;20033;-78
2022/10/29 11:13:29;;;;;;;19.73;9.07;;;20.00;98.50;;;;;;5054231;28;20392;-78
2022/10/29 11:16:06;;;;;;;16.83;7.28;;;19.90;98.40;;;;;;5053811;28;20027;-78
2022/10/29 11:18:49;;;;;;;18.23;8.52;;;19.90;98.60;;;;;;5054136;28;20106;-76
2022/10/29 11:21:26;;;;;;;17.52;9.32;;;20.00;98.40;;;;;;5054130;28;20029;-77
2022/10/29 11:24:08;;;;;;;20.10;8.27;;;20.10;98.50;;;;;;5053967;28;20189;-78
2022/10/29 11:26:35;;;;;;;16.30;7.77;;;20.10;98.60;;;;;;5053671;28;20108;-77
2022/10/29 11:29:34;;;;;;;14.25;8.00;;;20.20;98.60;;;;;;5054237;28;20044;-76
2022/10/29 11:32:10;;;;;;;16.25;7.65;;;20.20;98.50;;;;;;5062831;28;20110;-78
2022/10/29 11:34:49;;;;;;;14.55;7.15;;;20.10;98.40;;;;;;5053673;28;20099;-78
2022/10/29 11:37:17;;;;;;;24.70;8.30;;;20.20;98.40;;;;;;5053949;28;20063;-78
2022/10/29 11:39:59;;;;;;;15.07;7.93;;;20.30;98.50;;;;;;5053271;28;20376;-78
2022/10/29 11:42:24;;;;;;;15.85;7.93;;;20.40;98.50;;;;;;5053665;28;20036;-78
2022/10/29 11:44:50;;;;;;;16.50;6.97;;;20.50;98.40;;;;;;5053127;28;20025;-79
2022/10/29 11:47:46;;;;;;;19.25;8.98;;;20.60;98.10;;;;;;5053251;28;20032;-78
2022/10/29 11:50:41;;;;;;;14.90;7.97;;;20.80;97.70;;;;;;5053043;28;20094;-78
2022/10/29 11:53:38;;;;;;;16.70;7.45;;;20.90;97.60;;;;;;5034048;28;20060;-77
2022/10/29 11:56:36;;;;;;;14.40;7.57;;;21.00;97.40;;;;;;5053151;28;20032;-78
2022/10/29 11:59:15;;;;;;;13.60;6.43;;;21.10;97.80;;;;;;5047688;28;20044;-78
2022/10/29 12:02:24;;;;;;;16.77;5.97;;;21.30;97.30;;;;;;5053254;28;20025;-78
2022/10/29 12:05:00;;;;;;;14.02;5.63;;;21.30;97.10;;;;;;5030152;28;20032;-78
2022/10/29 12:07:56;;;;;;;13.98;6.20;;;21.40;97.20;;;;;;5053112;28;20104;-78
2022/10/29 12:10:30;;;;;;;19.38;5.22;;;21.40;97.20;;;;;;5053468;28;20052;-79
2022/10/29 12:13:23;;;;;;;12.57;5.32;;;21.50;97.60;;;;;;5053409;28;20392;-78
2022/10/29 12:16:00;;;;;;;;;;;21.60;97.30;;;;;;5056397;28;20028;-77
2022/10/29 12:18:40;;;;;;;16.00;6.45;;;21.60;96.40;;;;;;5057430;28;19924;-78
2022/10/29 12:21:27;;;;;;;12.27;5.68;;;21.70;96.40;;;;;;5057684;28;20052;-78
2022/10/29 12:24:20;;;;;;;15.65;5.95;;;21.60;96.40;;;;;;5057129;28;20056;-79
2022/10/29 12:27:13;;;;;;;14.57;4.93;;;21.60;96.50;;;;;;5064844;28;20468;-75
2022/10/29 12:29:54;;;;;;;13.10;5.78;;;21.60;96.50;;;;;;5059969;28;20044;-79
2022/10/29 12:32:25;;;;;;;14.98;4.75;;;21.70;96.70;;;;;;5057347;28;20048;-79
2022/10/29 12:35:14;;;;;;;14.65;5.25;;;21.60;96.60;;;;;;5057229;28;20033;-79
2022/10/29 12:38:12;;;;;;;14.57;5.43;;;21.70;96.70;;;;;;5057252;28;20029;-79
2022/10/29 12:40:43;;;;;;;14.13;5.85;;;21.60;96.50;;;;;;5034105;28;20040;-78
2022/10/29 12:43:30;;;;;;;13.57;5.43;;;21.70;96.90;;;;;;5057116;28;20100;-79
2022/10/29 12:46:34;;;;;;;9.25;4.53;;;21.90;97.30;;;;;;5057288;28;20045;-79
2022/10/29 12:49:21;;;;;;;13.57;4.78;;;22.20;97.20;;;;;;5055813;28;20029;-78
2022/10/29 12:51:57;;;;;;;12.93;4.35;;;22.30;96.60;;;;;;5056888;28;20041;-78
2022/10/29 12:54:23;;;;;;;11.30;3.92;;;22.50;95.60;;;;;;5056932;28;20372;-78
2022/10/29 12:56:49;;;;;;;8.88;3.60;;;22.60;94.90;;;;;;5056757;28;20112;-78